Echo, Alabama
Current Conditions -  °F | °C
As of 5:53 AM on Friday 31 Oct 2014 (Local Time) from KDHN Reporting Station
Clear Clear  
Wind Chill: 42°   Ceiling: Unl
Heat Index: 45°   Visibility: 10mi
Dew Point: 40°   Wind: 6mph
Humidity: 82%   Direction: 320°NW
Pressure: 29.99"   Gusts: NA
Location:  31.4499°N, 85.3271°W
Report Text: KDHN 311053Z 32005KT 10SM CLR 07/04 A2999 RMK AO2 SLP155 T00720044
Loading
Personal Weather Stations






























Interactive Weather Map
Tropical Storm Tracking
New forecast layout! Learn more

10-Day Weather Forecast

Advertisements
Track Severe Weather on mobile